Terminal Aerodrome Forecast
Issued by NWS Detroit/Pontiac, MI

Home | Current Version | Previous Version | Text Only | Print | Product List | Glossary On
Versions: 1 2 3 4 5 6 7 8 9 10 11 12 13 14 15 16 17
000
FTUS43 KDTX 072330
TAFFNT
TAF
KFNT 072330Z 0800/0824 25010KT P6SM BKN035 OVC150
      TEMPO 0801/0803 OVC025
     FM080300 25013G20KT P6SM OVC020
     FM081400 26013G23KT P6SM -SHSN OVC025
     FM081700 26015G25KT 5SM -SHSN OVC025
     FM082200 26015G25KT P6SM -SHSN BKN035 OVC080=

USA.gov is the U.S. government's official web portal to all federal, state and local government web resources and services.